createdAt,value
2019-04-10T00:05:27.712Z,100785.67
2019-04-10T00:11:34.577Z,100782.15
2019-04-10T00:17:40.921Z,100792.23
2019-04-10T00:23:47.166Z,100795.67
2019-04-10T00:29:53.034Z,100800.48
2019-04-10T00:35:59.513Z,100799.13
2019-04-10T00:42:05.492Z,100799.09
2019-04-10T00:48:11.977Z,100806.98
2019-04-10T00:54:18.254Z,100810.41
2019-04-10T01:00:24.038Z,100819.16
2019-04-10T01:06:30.405Z,100814.31
2019-04-10T01:12:36.380Z,100807.20
2019-04-10T01:18:42.227Z,100806.75
2019-04-10T01:24:48.074Z,100807.09
2019-04-10T01:30:54.946Z,100811.89
2019-04-10T01:37:01.152Z,100805.70
2019-04-10T01:43:12.937Z,100813.55
2019-04-10T01:49:15.652Z,100810.45
2019-04-10T01:55:25.763Z,100803.80
2019-04-10T02:01:33.179Z,100805.55
2019-04-10T02:07:39.013Z,100805.05
2019-04-10T02:13:44.716Z,100808.95
2019-04-10T02:19:50.748Z,100808.41
2019-04-10T02:25:56.966Z,100811.42
2019-04-10T02:32:04.131Z,100810.84
2019-04-10T02:38:26.138Z,100815.55
2019-04-10T02:44:20.179Z,100818.13
2019-04-10T02:50:27.370Z,100822.38
2019-04-10T02:56:33.632Z,100821.48
2019-04-10T03:02:41.590Z,100816.53
2019-04-10T03:09:03.451Z,100824.72
2019-04-10T03:14:55.124Z,100831.62
2019-04-10T03:21:01.176Z,100829.72
2019-04-10T03:27:08.709Z,100830.51
2019-04-10T03:33:33.774Z,100841.67
2019-04-10T03:39:40.558Z,100845.95
2019-04-10T03:45:46.731Z,100848.00
2019-04-10T03:51:52.753Z,100847.53
2019-04-10T03:57:58.738Z,100856.59
2019-04-10T04:04:04.980Z,100862.36
2019-04-10T04:10:11.330Z,100870.53
2019-04-10T04:16:17.381Z,100869.98
2019-04-10T04:22:23.167Z,100872.89
2019-04-10T04:28:29.820Z,100870.09
2019-04-10T04:34:36.714Z,100871.99
2019-04-10T04:40:42.521Z,100881.06
2019-04-10T04:46:48.362Z,100890.60
2019-04-10T04:52:54.208Z,100896.06
2019-04-10T04:58:59.989Z,100895.06
2019-04-10T05:05:06.637Z,100905.03
2019-04-10T05:11:13.825Z,100913.95
2019-04-10T05:17:20.008Z,100917.99
2019-04-10T05:23:26.679Z,100922.09
2019-04-10T05:29:32.658Z,100933.02
2019-04-10T05:35:39.774Z,100941.20
2019-04-10T05:41:46.937Z,100955.17
2019-04-10T05:47:52.878Z,100961.17
2019-04-10T05:54:00.064Z,100976.55
2019-04-10T06:00:08.404Z,100971.33
2019-04-10T06:06:14.591Z,100973.70
2019-04-10T06:12:20.418Z,100977.08
2019-04-10T06:18:27.156Z,100994.40
2019-04-10T06:24:33.095Z,100991.06
2019-04-10T06:30:39.801Z,100986.02
2019-04-10T06:36:45.950Z,100995.30
2019-04-10T06:42:54.897Z,100990.27
2019-04-10T06:49:00.419Z,100989.30
2019-04-10T06:55:06.685Z,100994.19
2019-04-10T07:01:14.681Z,100993.84
2019-04-10T07:07:23.870Z,100988.98
2019-04-10T07:13:28.695Z,101005.30
2019-04-10T07:19:34.530Z,101002.85
2019-04-10T07:25:44.617Z,101000.55
2019-04-10T07:31:48.785Z,101001.09
2019-04-10T07:37:56.966Z,101013.20
2019-04-10T07:44:02.188Z,101018.08
2019-04-10T07:50:10.329Z,101018.69
2019-04-10T07:56:20.388Z,101024.67
2019-04-10T08:02:24.096Z,101023.28
2019-04-10T08:08:30.078Z,101031.02
2019-04-10T08:14:35.947Z,101023.31
2019-04-10T08:20:42.502Z,101025.47
2019-04-10T08:26:49.234Z,101028.26
2019-04-10T08:33:00.713Z,101041.97
2019-04-10T08:39:02.901Z,101034.64
2019-04-10T08:45:09.224Z,101027.74
2019-04-10T08:51:15.650Z,101026.73
2019-04-10T08:57:21.548Z,101040.08
2019-04-10T09:03:27.386Z,101044.62
2019-04-10T09:09:33.919Z,101042.95
2019-04-10T09:15:40.277Z,101047.11
2019-04-10T09:21:46.256Z,101047.23
2019-04-10T09:27:52.071Z,101044.63
2019-04-10T09:33:59.091Z,101039.85
2019-04-10T09:40:05.765Z,101039.09
2019-04-10T09:46:12.638Z,101036.09
2019-04-10T09:52:18.785Z,101037.02
2019-04-10T09:58:24.629Z,101026.08
2019-04-10T10:04:31.274Z,101028.81
2019-04-10T10:10:38.392Z,101029.27
2019-04-10T10:16:46.275Z,101020.48
2019-04-10T10:22:52.127Z,101025.75
2019-04-10T10:28:58.586Z,101022.69
2019-04-10T10:35:05.069Z,101020.90
2019-04-10T10:41:10.944Z,101022.20
2019-04-10T10:47:17.068Z,101039.32
2019-04-10T10:53:24.066Z,101024.85
2019-04-10T10:59:29.896Z,101030.55
2019-04-10T11:05:37.190Z,101033.63
2019-04-10T11:11:43.419Z,101021.30
2019-04-10T11:17:50.000Z,101023.44
2019-04-10T11:23:56.150Z,101015.84
2019-04-10T11:30:03.487Z,101032.60
2019-04-10T11:36:09.891Z,101035.28
2019-04-10T11:42:16.440Z,101027.23
2019-04-10T11:48:25.637Z,101029.80
2019-04-10T11:54:35.471Z,101024.84
2019-04-10T12:00:50.453Z,101040.59
2019-04-10T12:06:54.058Z,101046.84
2019-04-10T12:12:59.885Z,101038.02
2019-04-10T12:19:06.696Z,101040.49
2019-04-10T12:25:13.047Z,101035.55
2019-04-10T12:31:19.734Z,101047.69
2019-04-10T12:37:25.646Z,101042.16
2019-04-10T12:43:32.567Z,101038.92
2019-04-10T12:49:39.409Z,101051.61
2019-04-10T12:55:47.193Z,101044.40
2019-04-10T13:01:53.987Z,101059.19
2019-04-10T13:08:12.897Z,101025.53
2019-04-10T13:14:08.574Z,101040.03
2019-04-10T13:20:16.079Z,101042.29
2019-04-10T13:26:21.911Z,101040.55
2019-04-10T13:32:27.877Z,101040.20
2019-04-10T13:38:35.440Z,101043.72
2019-04-10T13:44:42.539Z,101037.27
2019-04-10T13:50:48.752Z,101032.43
2019-04-10T13:56:55.223Z,101042.23
2019-04-10T14:03:01.797Z,101037.22
2019-04-10T14:09:31.273Z,101032.14
2019-04-10T14:15:27.389Z,101037.43
2019-04-10T14:21:33.275Z,101047.97
2019-04-10T14:27:40.905Z,101048.55
2019-04-10T14:33:47.183Z,101065.16
2019-04-10T14:39:53.650Z,101067.87
2019-04-10T14:45:59.741Z,101059.23
2019-04-10T14:52:05.770Z,101065.25
2019-04-10T14:58:21.454Z,101071.78
2019-04-10T15:04:19.953Z,101077.58
2019-04-10T15:10:25.737Z,101080.68
2019-04-10T15:16:31.876Z,101067.92
2019-04-10T15:22:37.903Z,101091.20
2019-04-10T15:28:43.850Z,101097.86
2019-04-10T15:34:49.741Z,101088.08
2019-04-10T15:40:56.696Z,101098.67
2019-04-10T15:47:13.437Z,101095.67
2019-04-10T15:53:11.723Z,101102.68
2019-04-10T15:59:19.882Z,101108.31
2019-04-10T16:05:26.189Z,101109.08
2019-04-10T16:11:50.157Z,101120.67
2019-04-10T16:18:05.266Z,101118.14
2019-04-10T16:24:12.295Z,101121.96
2019-04-10T16:30:22.015Z,101119.17
2019-04-10T16:36:27.981Z,101124.77
2019-04-10T16:42:34.830Z,101129.11
2019-04-10T16:48:40.636Z,101136.81
2019-04-10T16:54:46.567Z,101137.69
2019-04-10T17:00:53.768Z,101146.02
2019-04-10T17:07:00.856Z,101148.58
2019-04-10T17:13:08.807Z,101158.08
2019-04-10T17:19:15.976Z,101156.83
2019-04-10T17:25:22.186Z,101164.33
2019-04-10T17:31:30.813Z,101173.80
2019-04-10T17:44:05.622Z,101184.70
2019-04-10T17:50:14.141Z,101193.55
2019-04-10T17:56:20.162Z,101199.34
2019-04-10T18:02:26.355Z,101208.55
2019-04-10T18:08:32.753Z,101211.20
2019-04-10T18:14:40.888Z,101222.64
2019-04-10T18:20:49.518Z,101241.09
2019-04-10T18:26:57.873Z,101244.13
2019-04-10T18:33:05.075Z,101251.14
2019-04-10T18:39:15.714Z,101260.73
2019-04-10T18:45:24.198Z,101273.02
2019-04-10T18:51:30.263Z,101273.83
2019-04-10T18:57:36.275Z,101283.03
2019-04-10T19:04:07.785Z,101282.05
2019-04-10T19:10:14.327Z,101293.37
2019-04-10T19:16:21.480Z,101300.34
2019-04-10T19:22:28.985Z,101305.53
2019-04-10T19:28:38.540Z,101319.52
2019-04-10T19:34:44.036Z,101315.88
2019-04-10T19:40:50.079Z,101327.64
2019-04-10T19:46:55.988Z,101332.83
2019-04-10T19:53:02.650Z,101346.80
2019-04-10T19:59:08.870Z,101344.06
2019-04-10T20:05:16.961Z,101347.48
2019-04-10T20:11:33.817Z,101357.40
2019-04-10T20:17:33.323Z,101360.80
2019-04-10T20:23:40.392Z,101364.17
2019-04-10T20:29:47.731Z,101373.63
2019-04-10T20:35:54.353Z,101374.45
2019-04-10T20:42:02.514Z,101386.50
2019-04-10T20:48:08.988Z,101390.78
2019-04-10T20:54:15.224Z,101400.31
2019-04-10T21:00:30.073Z,101398.83
2019-04-10T21:06:40.877Z,101400.95
2019-04-10T21:12:46.494Z,101408.62
2019-04-10T21:18:53.892Z,101421.56
2019-04-10T21:25:00.993Z,101424.11
2019-04-10T21:31:25.525Z,101429.24
2019-04-10T21:37:34.655Z,101422.92
2019-04-10T21:43:42.969Z,101436.84
2019-04-10T21:49:48.878Z,101446.29
2019-04-10T21:55:55.721Z,101454.91
2019-04-10T22:02:02.723Z,101453.87
2019-04-10T22:08:27.507Z,101455.01
2019-04-10T22:14:33.546Z,101455.44
2019-04-10T22:20:39.629Z,101459.16
2019-04-10T22:26:45.442Z,101455.48
2019-04-10T22:32:51.887Z,101456.65
2019-04-10T22:38:58.378Z,101464.37
2019-04-10T22:45:04.494Z,101463.84
2019-04-10T22:51:11.179Z,101463.64
2019-04-10T22:57:17.288Z,101473.11
2019-04-10T23:03:43.156Z,101471.64
2019-04-10T23:09:49.116Z,101474.45
2019-04-10T23:15:55.714Z,101480.36
2019-04-10T23:22:01.511Z,101487.23
2019-04-10T23:28:09.506Z,101490.95
2019-04-10T23:34:15.395Z,101493.36
2019-04-10T23:40:23.011Z,101508.84
2019-04-10T23:46:28.832Z,101509.86
2019-04-10T23:52:34.558Z,101511.86
2019-04-10T23:58:40.549Z,101520.34
